sensor_id;sensor_type;location;lat;lon;timestamp;P1;durP1;ratioP1;P2;durP2;ratioP2
8488;SDS011;4281;45.772;12.852;2022-09-02T00:02:33;3.33;;;3.00;;
8488;SDS011;4281;45.772;12.852;2022-09-02T00:05:02;2.83;;;2.60;;
8488;SDS011;4281;45.772;12.852;2022-09-02T00:10:10;4.60;;;3.10;;
8488;SDS011;4281;45.772;12.852;2022-09-02T00:12:38;3.13;;;2.83;;
8488;SDS011;4281;45.772;12.852;2022-09-02T00:15:07;2.97;;;2.73;;
8488;SDS011;4281;45.772;12.852;2022-09-02T00:17:37;3.13;;;2.73;;
8488;SDS011;4281;45.772;12.852;2022-09-02T00:20:08;3.70;;;3.10;;
8488;SDS011;4281;45.772;12.852;2022-09-02T00:22:36;3.67;;;2.77;;
8488;SDS011;4281;45.772;12.852;2022-09-02T00:25:05;2.97;;;2.77;;
8488;SDS011;4281;45.772;12.852;2022-09-02T00:27:35;3.73;;;2.80;;
8488;SDS011;4281;45.772;12.852;2022-09-02T00:30:04;3.50;;;2.40;;
8488;SDS011;4281;45.772;12.852;2022-09-02T00:32:33;3.03;;;2.50;;
8488;SDS011;4281;45.772;12.852;2022-09-02T00:35:04;2.50;;;2.27;;
8488;SDS011;4281;45.772;12.852;2022-09-02T00:37:33;2.30;;;2.10;;
8488;SDS011;4281;45.772;12.852;2022-09-02T00:40:02;2.53;;;2.33;;
8488;SDS011;4281;45.772;12.852;2022-09-02T00:42:31;3.13;;;2.50;;
8488;SDS011;4281;45.772;12.852;2022-09-02T00:45:00;3.13;;;2.10;;
8488;SDS011;4281;45.772;12.852;2022-09-02T00:47:30;2.57;;;2.23;;
8488;SDS011;4281;45.772;12.852;2022-09-02T00:49:58;3.90;;;2.43;;
8488;SDS011;4281;45.772;12.852;2022-09-02T00:52:31;2.67;;;2.00;;
8488;SDS011;4281;45.772;12.852;2022-09-02T00:55:02;2.97;;;2.47;;
8488;SDS011;4281;45.772;12.852;2022-09-02T00:57:35;1.93;;;1.80;;
8488;SDS011;4281;45.772;12.852;2022-09-02T01:00:08;2.40;;;2.20;;
8488;SDS011;4281;45.772;12.852;2022-09-02T01:02:45;2.30;;;2.10;;
8488;SDS011;4281;45.772;12.852;2022-09-02T01:05:16;2.97;;;2.30;;
8488;SDS011;4281;45.772;12.852;2022-09-02T01:10:27;3.20;;;1.80;;
8488;SDS011;4281;45.772;12.852;2022-09-02T01:12:58;4.60;;;2.07;;
8488;SDS011;4281;45.772;12.852;2022-09-02T01:15:33;2.60;;;2.10;;
8488;SDS011;4281;45.772;12.852;2022-09-02T01:18:05;2.33;;;2.13;;
8488;SDS011;4281;45.772;12.852;2022-09-02T01:20:36;2.20;;;2.00;;
8488;SDS011;4281;45.772;12.852;2022-09-02T01:23:06;2.20;;;2.00;;
8488;SDS011;4281;45.772;12.852;2022-09-02T01:25:35;2.50;;;2.30;;
8488;SDS011;4281;45.772;12.852;2022-09-02T01:28:04;2.73;;;2.13;;
8488;SDS011;4281;45.772;12.852;2022-09-02T01:30:35;2.60;;;2.20;;
8488;SDS011;4281;45.772;12.852;2022-09-02T01:33:06;2.00;;;1.80;;
8488;SDS011;4281;45.772;12.852;2022-09-02T01:35:35;2.70;;;2.07;;
8488;SDS011;4281;45.772;12.852;2022-09-02T01:38:06;3.30;;;2.00;;
8488;SDS011;4281;45.772;12.852;2022-09-02T01:40:35;2.43;;;1.90;;
8488;SDS011;4281;45.772;12.852;2022-09-02T01:43:04;2.40;;;2.20;;
8488;SDS011;4281;45.772;12.852;2022-09-02T01:45:35;3.10;;;2.50;;
8488;SDS011;4281;45.772;12.852;2022-09-02T01:48:05;3.17;;;2.17;;
8488;SDS011;4281;45.772;12.852;2022-09-02T01:50:35;3.33;;;2.47;;
8488;SDS011;4281;45.772;12.852;2022-09-02T01:53:11;3.43;;;2.20;;
8488;SDS011;4281;45.772;12.852;2022-09-02T01:55:40;2.50;;;2.30;;
8488;SDS011;4281;45.772;12.852;2022-09-02T01:58:08;2.37;;;2.17;;
8488;SDS011;4281;45.772;12.852;2022-09-02T02:00:37;4.03;;;2.20;;
8488;SDS011;4281;45.772;12.852;2022-09-02T02:03:05;3.53;;;2.00;;
8488;SDS011;4281;45.772;12.852;2022-09-02T02:05:34;2.20;;;2.00;;
8488;SDS011;4281;45.772;12.852;2022-09-02T02:10:33;2.43;;;2.23;;
8488;SDS011;4281;45.772;12.852;2022-09-02T02:13:02;3.10;;;2.30;;
8488;SDS011;4281;45.772;12.852;2022-09-02T02:15:30;2.30;;;2.00;;
8488;SDS011;4281;45.772;12.852;2022-09-02T02:17:59;3.63;;;2.40;;
8488;SDS011;4281;45.772;12.852;2022-09-02T02:20:27;2.63;;;2.40;;
8488;SDS011;4281;45.772;12.852;2022-09-02T02:22:56;2.70;;;2.30;;
8488;SDS011;4281;45.772;12.852;2022-09-02T02:25:24;2.70;;;2.50;;
8488;SDS011;4281;45.772;12.852;2022-09-02T02:27:54;2.43;;;2.23;;
8488;SDS011;4281;45.772;12.852;2022-09-02T02:30:23;2.30;;;2.10;;
8488;SDS011;4281;45.772;12.852;2022-09-02T02:32:51;2.97;;;2.40;;
8488;SDS011;4281;45.772;12.852;2022-09-02T02:35:19;2.67;;;2.47;;
8488;SDS011;4281;45.772;12.852;2022-09-02T02:37:48;2.93;;;2.60;;
8488;SDS011;4281;45.772;12.852;2022-09-02T02:40:17;3.43;;;2.53;;
8488;SDS011;4281;45.772;12.852;2022-09-02T02:42:49;2.60;;;2.40;;
8488;SDS011;4281;45.772;12.852;2022-09-02T02:45:22;3.63;;;2.10;;
8488;SDS011;4281;45.772;12.852;2022-09-02T02:47:51;3.70;;;2.20;;
8488;SDS011;4281;45.772;12.852;2022-09-02T02:50:21;3.07;;;2.20;;
8488;SDS011;4281;45.772;12.852;2022-09-02T02:52:50;2.20;;;1.90;;
8488;SDS011;4281;45.772;12.852;2022-09-02T02:55:20;2.93;;;2.30;;
8488;SDS011;4281;45.772;12.852;2022-09-02T02:57:50;3.60;;;2.00;;
8488;SDS011;4281;45.772;12.852;2022-09-02T03:00:20;3.20;;;2.30;;
8488;SDS011;4281;45.772;12.852;2022-09-02T03:02:53;2.13;;;1.90;;
8488;SDS011;4281;45.772;12.852;2022-09-02T03:05:23;2.50;;;2.00;;
8488;SDS011;4281;45.772;12.852;2022-09-02T03:10:35;1.80;;;1.70;;
8488;SDS011;4281;45.772;12.852;2022-09-02T03:13:06;2.07;;;1.87;;
8488;SDS011;4281;45.772;12.852;2022-09-02T03:15:38;2.80;;;1.80;;
8488;SDS011;4281;45.772;12.852;2022-09-02T03:18:08;3.43;;;2.20;;
8488;SDS011;4281;45.772;12.852;2022-09-02T03:20:37;2.00;;;1.80;;
8488;SDS011;4281;45.772;12.852;2022-09-02T03:23:06;4.57;;;1.90;;
8488;SDS011;4281;45.772;12.852;2022-09-02T03:25:35;2.90;;;2.10;;
8488;SDS011;4281;45.772;12.852;2022-09-02T03:28:03;2.93;;;1.90;;
8488;SDS011;4281;45.772;12.852;2022-09-02T03:30:33;2.50;;;1.93;;
8488;SDS011;4281;45.772;12.852;2022-09-02T03:33:04;2.17;;;1.97;;
8488;SDS011;4281;45.772;12.852;2022-09-02T03:35:33;3.03;;;2.07;;
8488;SDS011;4281;45.772;12.852;2022-09-02T03:38:06;2.30;;;2.10;;
8488;SDS011;4281;45.772;12.852;2022-09-02T03:40:35;2.10;;;1.90;;
8488;SDS011;4281;45.772;12.852;2022-09-02T03:43:05;2.10;;;1.77;;
8488;SDS011;4281;45.772;12.852;2022-09-02T03:45:33;1.97;;;1.80;;
8488;SDS011;4281;45.772;12.852;2022-09-02T03:48:05;3.20;;;1.90;;
8488;SDS011;4281;45.772;12.852;2022-09-02T03:50:35;2.37;;;2.17;;
8488;SDS011;4281;45.772;12.852;2022-09-02T03:53:06;2.10;;;1.80;;
8488;SDS011;4281;45.772;12.852;2022-09-02T03:55:44;1.93;;;1.77;;
8488;SDS011;4281;45.772;12.852;2022-09-02T03:58:14;3.73;;;1.93;;
8488;SDS011;4281;45.772;12.852;2022-09-02T04:00:47;1.97;;;1.73;;
8488;SDS011;4281;45.772;12.852;2022-09-02T04:03:19;3.70;;;2.10;;
8488;SDS011;4281;45.772;12.852;2022-09-02T04:05:49;2.37;;;1.93;;
8488;SDS011;4281;45.772;12.852;2022-09-02T04:10:52;3.20;;;2.30;;
8488;SDS011;4281;45.772;12.852;2022-09-02T04:13:21;2.60;;;2.40;;
8488;SDS011;4281;45.772;12.852;2022-09-02T04:15:50;3.60;;;2.30;;
8488;SDS011;4281;45.772;12.852;2022-09-02T04:18:20;2.90;;;2.60;;
8488;SDS011;4281;45.772;12.852;2022-09-02T04:20:48;2.67;;;2.40;;
8488;SDS011;4281;45.772;12.852;2022-09-02T04:23:16;2.67;;;2.37;;
8488;SDS011;4281;45.772;12.852;2022-09-02T04:25:45;2.90;;;2.70;;
8488;SDS011;4281;45.772;12.852;2022-09-02T04:28:13;3.37;;;2.67;;
8488;SDS011;4281;45.772;12.852;2022-09-02T04:30:42;4.73;;;2.70;;
8488;SDS011;4281;45.772;12.852;2022-09-02T04:33:10;5.03;;;3.00;;
8488;SDS011;4281;45.772;12.852;2022-09-02T04:35:41;3.70;;;2.67;;
8488;SDS011;4281;45.772;12.852;2022-09-02T04:38:09;3.70;;;2.97;;
8488;SDS011;4281;45.772;12.852;2022-09-02T04:40:39;3.40;;;3.00;;
8488;SDS011;4281;45.772;12.852;2022-09-02T04:43:09;3.70;;;3.33;;
8488;SDS011;4281;45.772;12.852;2022-09-02T04:45:38;4.10;;;2.87;;
8488;SDS011;4281;45.772;12.852;2022-09-02T04:48:09;3.60;;;2.87;;
8488;SDS011;4281;45.772;12.852;2022-09-02T04:50:38;4.97;;;2.90;;
8488;SDS011;4281;45.772;12.852;2022-09-02T04:53:08;4.00;;;2.97;;
8488;SDS011;4281;45.772;12.852;2022-09-02T04:55:38;4.00;;;2.80;;
8488;SDS011;4281;45.772;12.852;2022-09-02T04:58:07;4.17;;;2.67;;
8488;SDS011;4281;45.772;12.852;2022-09-02T05:00:36;4.57;;;2.90;;
8488;SDS011;4281;45.772;12.852;2022-09-02T05:03:05;3.00;;;2.67;;
8488;SDS011;4281;45.772;12.852;2022-09-02T05:05:34;4.23;;;3.17;;
8488;SDS011;4281;45.772;12.852;2022-09-02T05:08:04;4.53;;;4.00;;
8488;SDS011;4281;45.772;12.852;2022-09-02T05:10:53;3.37;;;2.90;;
8488;SDS011;4281;45.772;12.852;2022-09-02T05:13:21;2.83;;;2.47;;
8488;SDS011;4281;45.772;12.852;2022-09-02T05:15:51;3.90;;;2.47;;
8488;SDS011;4281;45.772;12.852;2022-09-02T05:18:20;4.80;;;3.00;;
8488;SDS011;4281;45.772;12.852;2022-09-02T05:20:49;5.00;;;2.77;;
8488;SDS011;4281;45.772;12.852;2022-09-02T05:23:17;2.80;;;2.60;;
8488;SDS011;4281;45.772;12.852;2022-09-02T05:25:46;3.63;;;2.67;;
8488;SDS011;4281;45.772;12.852;2022-09-02T05:28:16;4.40;;;2.93;;
8488;SDS011;4281;45.772;12.852;2022-09-02T05:30:44;4.00;;;2.70;;
8488;SDS011;4281;45.772;12.852;2022-09-02T05:33:13;3.90;;;2.70;;
8488;SDS011;4281;45.772;12.852;2022-09-02T05:35:42;3.87;;;2.80;;
8488;SDS011;4281;45.772;12.852;2022-09-02T05:38:15;3.50;;;3.00;;
8488;SDS011;4281;45.772;12.852;2022-09-02T05:40:44;3.20;;;2.47;;
8488;SDS011;4281;45.772;12.852;2022-09-02T05:43:13;2.63;;;2.43;;
8488;SDS011;4281;45.772;12.852;2022-09-02T05:45:42;2.90;;;2.60;;
8488;SDS011;4281;45.772;12.852;2022-09-02T05:48:13;4.13;;;2.33;;
8488;SDS011;4281;45.772;12.852;2022-09-02T05:51:02;5.63;;;3.20;;
8488;SDS011;4281;45.772;12.852;2022-09-02T05:53:31;7.13;;;3.23;;
8488;SDS011;4281;45.772;12.852;2022-09-02T05:56:02;6.87;;;2.60;;
8488;SDS011;4281;45.772;12.852;2022-09-02T05:58:31;6.10;;;2.80;;
8488;SDS011;4281;45.772;12.852;2022-09-02T06:01:06;6.53;;;2.53;;
8488;SDS011;4281;45.772;12.852;2022-09-02T06:03:36;10.93;;;3.30;;
8488;SDS011;4281;45.772;12.852;2022-09-02T06:06:05;7.30;;;2.70;;
8488;SDS011;4281;45.772;12.852;2022-09-02T06:11:10;2.57;;;2.07;;
8488;SDS011;4281;45.772;12.852;2022-09-02T06:13:40;2.50;;;2.20;;
8488;SDS011;4281;45.772;12.852;2022-09-02T06:16:13;3.23;;;2.53;;
8488;SDS011;4281;45.772;12.852;2022-09-02T06:18:44;2.90;;;2.30;;
8488;SDS011;4281;45.772;12.852;2022-09-02T06:21:13;2.73;;;2.23;;
8488;SDS011;4281;45.772;12.852;2022-09-02T06:23:42;4.33;;;2.10;;
8488;SDS011;4281;45.772;12.852;2022-09-02T06:26:11;2.53;;;2.30;;
8488;SDS011;4281;45.772;12.852;2022-09-02T06:28:41;3.83;;;2.27;;
8488;SDS011;4281;45.772;12.852;2022-09-02T06:31:10;4.90;;;2.47;;
8488;SDS011;4281;45.772;12.852;2022-09-02T06:33:42;3.23;;;2.27;;
8488;SDS011;4281;45.772;12.852;2022-09-02T06:36:13;1.97;;;1.80;;
8488;SDS011;4281;45.772;12.852;2022-09-02T06:38:43;2.50;;;2.00;;
8488;SDS011;4281;45.772;12.852;2022-09-02T06:41:16;4.30;;;2.10;;
8488;SDS011;4281;45.772;12.852;2022-09-02T06:43:48;3.53;;;2.10;;
8488;SDS011;4281;45.772;12.852;2022-09-02T06:46:22;2.20;;;1.97;;
8488;SDS011;4281;45.772;12.852;2022-09-02T06:48:53;3.53;;;1.87;;
8488;SDS011;4281;45.772;12.852;2022-09-02T06:51:23;4.77;;;1.90;;
8488;SDS011;4281;45.772;12.852;2022-09-02T06:53:52;3.80;;;1.83;;
8488;SDS011;4281;45.772;12.852;2022-09-02T06:56:21;2.67;;;1.70;;
8488;SDS011;4281;45.772;12.852;2022-09-02T06:58:50;3.80;;;2.10;;
8488;SDS011;4281;45.772;12.852;2022-09-02T07:01:18;2.83;;;2.23;;
8488;SDS011;4281;45.772;12.852;2022-09-02T07:03:50;5.07;;;2.07;;
8488;SDS011;4281;45.772;12.852;2022-09-02T07:06:38;3.33;;;1.90;;
8488;SDS011;4281;45.772;12.852;2022-09-02T07:09:13;2.30;;;2.10;;
8488;SDS011;4281;45.772;12.852;2022-09-02T07:11:44;3.03;;;1.80;;
8488;SDS011;4281;45.772;12.852;2022-09-02T07:14:13;4.83;;;2.10;;
8488;SDS011;4281;45.772;12.852;2022-09-02T07:16:45;5.20;;;1.93;;
8488;SDS011;4281;45.772;12.852;2022-09-02T07:19:15;6.10;;;1.73;;
8488;SDS011;4281;45.772;12.852;2022-09-02T07:21:46;2.37;;;1.60;;
8488;SDS011;4281;45.772;12.852;2022-09-02T07:24:15;1.60;;;1.50;;
8488;SDS011;4281;45.772;12.852;2022-09-02T07:26:44;3.60;;;1.80;;
8488;SDS011;4281;45.772;12.852;2022-09-02T07:29:12;2.30;;;1.70;;
8488;SDS011;4281;45.772;12.852;2022-09-02T07:31:42;1.87;;;1.60;;
8488;SDS011;4281;45.772;12.852;2022-09-02T07:34:13;1.83;;;1.40;;
8488;SDS011;4281;45.772;12.852;2022-09-02T07:36:42;2.30;;;1.70;;
8488;SDS011;4281;45.772;12.852;2022-09-02T07:39:12;4.13;;;1.60;;
8488;SDS011;4281;45.772;12.852;2022-09-02T07:41:42;1.97;;;1.60;;
8488;SDS011;4281;45.772;12.852;2022-09-02T07:44:12;3.77;;;1.40;;
8488;SDS011;4281;45.772;12.852;2022-09-02T07:46:41;1.77;;;1.67;;
8488;SDS011;4281;45.772;12.852;2022-09-02T07:49:13;1.50;;;1.37;;
8488;SDS011;4281;45.772;12.852;2022-09-02T07:51:49;2.77;;;1.40;;
8488;SDS011;4281;45.772;12.852;2022-09-02T07:54:19;1.77;;;1.47;;
8488;SDS011;4281;45.772;12.852;2022-09-02T07:56:49;1.57;;;1.40;;
8488;SDS011;4281;45.772;12.852;2022-09-02T07:59:18;4.47;;;1.60;;
8488;SDS011;4281;45.772;12.852;2022-09-02T08:01:47;1.93;;;1.40;;
8488;SDS011;4281;45.772;12.852;2022-09-02T08:04:18;1.83;;;1.47;;
8488;SDS011;4281;45.772;12.852;2022-09-02T08:06:49;2.23;;;1.40;;
8488;SDS011;4281;45.772;12.852;2022-09-02T08:09:18;2.23;;;1.50;;
8488;SDS011;4281;45.772;12.852;2022-09-02T08:11:48;1.40;;;1.30;;
8488;SDS011;4281;45.772;12.852;2022-09-02T08:14:18;1.87;;;1.37;;
8488;SDS011;4281;45.772;12.852;2022-09-02T08:16:50;2.87;;;1.40;;
8488;SDS011;4281;45.772;12.852;2022-09-02T08:19:21;1.93;;;1.50;;
8488;SDS011;4281;45.772;12.852;2022-09-02T08:21:50;2.20;;;1.50;;
8488;SDS011;4281;45.772;12.852;2022-09-02T08:24:19;2.17;;;1.57;;
8488;SDS011;4281;45.772;12.852;2022-09-02T08:26:47;3.57;;;1.40;;
8488;SDS011;4281;45.772;12.852;2022-09-02T08:29:16;1.47;;;1.37;;
8488;SDS011;4281;45.772;12.852;2022-09-02T08:31:44;2.47;;;1.43;;
8488;SDS011;4281;45.772;12.852;2022-09-02T08:34:17;1.70;;;1.40;;
8488;SDS011;4281;45.772;12.852;2022-09-02T08:36:47;1.87;;;1.30;;
8488;SDS011;4281;45.772;12.852;2022-09-02T08:39:22;2.83;;;1.43;;
8488;SDS011;4281;45.772;12.852;2022-09-02T08:41:53;6.90;;;1.40;;
8488;SDS011;4281;45.772;12.852;2022-09-02T08:44:31;1.60;;;1.43;;
8488;SDS011;4281;45.772;12.852;2022-09-02T08:47:05;2.70;;;1.50;;
8488;SDS011;4281;45.772;12.852;2022-09-02T08:49:40;2.73;;;1.60;;
8488;SDS011;4281;45.772;12.852;2022-09-02T08:52:14;3.37;;;1.10;;
8488;SDS011;4281;45.772;12.852;2022-09-02T08:54:50;1.90;;;1.40;;
8488;SDS011;4281;45.772;12.852;2022-09-02T08:57:21;2.07;;;1.33;;
8488;SDS011;4281;45.772;12.852;2022-09-02T08:59:52;3.43;;;1.50;;
8488;SDS011;4281;45.772;12.852;2022-09-02T09:02:28;1.67;;;1.30;;
8488;SDS011;4281;45.772;12.852;2022-09-02T09:05:18;1.60;;;1.47;;
8488;SDS011;4281;45.772;12.852;2022-09-02T09:08:01;1.30;;;1.20;;
8488;SDS011;4281;45.772;12.852;2022-09-02T09:10:43;1.43;;;1.03;;
8488;SDS011;4281;45.772;12.852;2022-09-02T09:13:28;1.97;;;1.77;;
8488;SDS011;4281;45.772;12.852;2022-09-02T09:16:13;1.87;;;1.10;;
8488;SDS011;4281;45.772;12.852;2022-09-02T09:18:58;1.83;;;1.67;;
8488;SDS011;4281;45.772;12.852;2022-09-02T09:21:34;3.60;;;3.10;;
8488;SDS011;4281;45.772;12.852;2022-09-02T09:24:06;1.70;;;1.60;;
8488;SDS011;4281;45.772;12.852;2022-09-02T09:26:45;3.27;;;1.30;;
8488;SDS011;4281;45.772;12.852;2022-09-02T09:29:13;2.20;;;1.23;;
8488;SDS011;4281;45.772;12.852;2022-09-02T09:31:42;4.33;;;3.90;;
8488;SDS011;4281;45.772;12.852;2022-09-02T09:34:20;1.50;;;1.40;;
8488;SDS011;4281;45.772;12.852;2022-09-02T09:36:49;2.80;;;1.30;;
8488;SDS011;4281;45.772;12.852;2022-09-02T09:39:22;2.00;;;1.20;;
8488;SDS011;4281;45.772;12.852;2022-09-02T09:41:53;1.40;;;1.30;;
8488;SDS011;4281;45.772;12.852;2022-09-02T09:47:15;1.60;;;1.50;;
8488;SDS011;4281;45.772;12.852;2022-09-02T09:49:48;3.70;;;1.80;;
8488;SDS011;4281;45.772;12.852;2022-09-02T09:52:23;2.73;;;1.37;;
8488;SDS011;4281;45.772;12.852;2022-09-02T09:55:07;5.57;;;1.50;;
8488;SDS011;4281;45.772;12.852;2022-09-02T09:57:50;4.27;;;1.70;;
8488;SDS011;4281;45.772;12.852;2022-09-02T10:00:20;3.60;;;2.07;;
8488;SDS011;4281;45.772;12.852;2022-09-02T10:02:54;2.77;;;1.60;;
8488;SDS011;4281;45.772;12.852;2022-09-02T10:05:29;2.33;;;1.50;;
8488;SDS011;4281;45.772;12.852;2022-09-02T10:08:00;3.23;;;1.60;;
8488;SDS011;4281;45.772;12.852;2022-09-02T10:10:50;2.50;;;1.53;;
8488;SDS011;4281;45.772;12.852;2022-09-02T10:13:23;3.17;;;1.93;;
8488;SDS011;4281;45.772;12.852;2022-09-02T10:16:00;3.33;;;1.70;;
8488;SDS011;4281;45.772;12.852;2022-09-02T10:18:52;3.83;;;1.77;;
8488;SDS011;4281;45.772;12.852;2022-09-02T10:21:26;2.23;;;1.80;;
8488;SDS011;4281;45.772;12.852;2022-09-02T10:24:11;3.80;;;1.70;;
8488;SDS011;4281;45.772;12.852;2022-09-02T10:26:54;1.93;;;1.47;;
8488;SDS011;4281;45.772;12.852;2022-09-02T10:29:29;2.50;;;1.30;;
8488;SDS011;4281;45.772;12.852;2022-09-02T10:32:20;2.37;;;1.90;;
8488;SDS011;4281;45.772;12.852;2022-09-02T10:35:01;1.80;;;1.50;;
8488;SDS011;4281;45.772;12.852;2022-09-02T10:37:38;1.60;;;1.37;;
8488;SDS011;4281;45.772;12.852;2022-09-02T10:40:20;1.67;;;1.20;;
8488;SDS011;4281;45.772;12.852;2022-09-02T10:42:58;1.40;;;1.30;;
8488;SDS011;4281;45.772;12.852;2022-09-02T10:45:33;1.57;;;1.40;;
8488;SDS011;4281;45.772;12.852;2022-09-02T10:48:17;3.00;;;1.30;;
8488;SDS011;4281;45.772;12.852;2022-09-02T10:50:54;1.63;;;1.30;;
8488;SDS011;4281;45.772;12.852;2022-09-02T10:53:39;3.13;;;1.30;;
8488;SDS011;4281;45.772;12.852;2022-09-02T10:56:18;3.07;;;1.30;;
8488;SDS011;4281;45.772;12.852;2022-09-02T10:58:52;1.50;;;1.10;;
8488;SDS011;4281;45.772;12.852;2022-09-02T11:01:29;1.73;;;1.63;;
8488;SDS011;4281;45.772;12.852;2022-09-02T11:04:04;2.43;;;1.20;;
8488;SDS011;4281;45.772;12.852;2022-09-02T11:06:39;2.63;;;1.77;;
8488;SDS011;4281;45.772;12.852;2022-09-02T11:09:29;1.83;;;1.30;;
8488;SDS011;4281;45.772;12.852;2022-09-02T11:12:05;3.27;;;1.27;;
8488;SDS011;4281;45.772;12.852;2022-09-02T11:14:46;2.70;;;1.40;;
8488;SDS011;4281;45.772;12.852;2022-09-02T11:17:22;3.37;;;1.50;;
8488;SDS011;4281;45.772;12.852;2022-09-02T11:19:58;1.87;;;1.30;;
8488;SDS011;4281;45.772;12.852;2022-09-02T11:22:34;1.60;;;1.10;;
8488;SDS011;4281;45.772;12.852;2022-09-02T11:25:10;2.50;;;1.30;;
8488;SDS011;4281;45.772;12.852;2022-09-02T11:27:42;1.47;;;1.37;;
8488;SDS011;4281;45.772;12.852;2022-09-02T11:30:19;2.80;;;1.90;;
8488;SDS011;4281;45.772;12.852;2022-09-02T11:32:51;1.90;;;1.30;;
8488;SDS011;4281;45.772;12.852;2022-09-02T11:35:26;2.60;;;1.30;;
8488;SDS011;4281;45.772;12.852;2022-09-02T11:38:03;2.70;;;1.47;;
8488;SDS011;4281;45.772;12.852;2022-09-02T11:40:35;1.90;;;1.30;;
8488;SDS011;4281;45.772;12.852;2022-09-02T11:43:16;1.60;;;1.30;;
8488;SDS011;4281;45.772;12.852;2022-09-02T11:45:59;3.30;;;1.30;;
8488;SDS011;4281;45.772;12.852;2022-09-02T11:55:02;2.17;;;1.60;;
8488;SDS011;4281;45.772;12.852;2022-09-02T11:57:35;1.37;;;1.27;;
8488;SDS011;4281;45.772;12.852;2022-09-02T12:00:08;1.67;;;1.30;;
8488;SDS011;4281;45.772;12.852;2022-09-02T12:02:43;2.27;;;1.60;;
8488;SDS011;4281;45.772;12.852;2022-09-02T12:11:49;1.87;;;1.30;;
8488;SDS011;4281;45.772;12.852;2022-09-02T12:29:33;1.30;;;1.20;;
8488;SDS011;4281;45.772;12.852;2022-09-02T12:32:05;1.93;;;1.20;;
8488;SDS011;4281;45.772;12.852;2022-09-02T12:34:50;1.83;;;1.50;;
8488;SDS011;4281;45.772;12.852;2022-09-02T12:40:25;1.30;;;1.20;;
8488;SDS011;4281;45.772;12.852;2022-09-02T12:43:00;1.40;;;1.20;;
8488;SDS011;4281;45.772;12.852;2022-09-02T12:45:33;2.07;;;1.30;;
8488;SDS011;4281;45.772;12.852;2022-09-02T12:48:10;2.53;;;1.53;;
8488;SDS011;4281;45.772;12.852;2022-09-02T12:50:51;1.43;;;1.33;;
8488;SDS011;4281;45.772;12.852;2022-09-02T12:53:36;1.20;;;1.10;;
8488;SDS011;4281;45.772;12.852;2022-09-02T12:56:15;2.93;;;1.30;;
8488;SDS011;4281;45.772;12.852;2022-09-02T12:58:49;2.27;;;1.37;;
8488;SDS011;4281;45.772;12.852;2022-09-02T13:01:22;1.53;;;1.30;;
8488;SDS011;4281;45.772;12.852;2022-09-02T13:04:05;1.57;;;1.40;;
8488;SDS011;4281;45.772;12.852;2022-09-02T13:06:52;2.27;;;1.20;;
8488;SDS011;4281;45.772;12.852;2022-09-02T13:13:00;2.53;;;1.87;;
8488;SDS011;4281;45.772;12.852;2022-09-02T13:16:02;2.00;;;1.43;;
8488;SDS011;4281;45.772;12.852;2022-09-02T13:21:58;1.50;;;1.40;;
8488;SDS011;4281;45.772;12.852;2022-09-02T13:28:08;2.33;;;1.33;;
8488;SDS011;4281;45.772;12.852;2022-09-02T13:31:07;1.40;;;1.30;;
8488;SDS011;4281;45.772;12.852;2022-09-02T13:33:41;1.33;;;1.23;;
8488;SDS011;4281;45.772;12.852;2022-09-02T13:36:10;2.90;;;1.50;;
8488;SDS011;4281;45.772;12.852;2022-09-02T13:39:08;1.13;;;1.07;;
8488;SDS011;4281;45.772;12.852;2022-09-02T13:41:42;2.50;;;1.40;;
8488;SDS011;4281;45.772;12.852;2022-09-02T13:44:11;1.43;;;1.10;;
8488;SDS011;4281;45.772;12.852;2022-09-02T13:46:48;2.47;;;1.43;;
8488;SDS011;4281;45.772;12.852;2022-09-02T13:49:19;4.00;;;1.60;;
8488;SDS011;4281;45.772;12.852;2022-09-02T13:51:51;1.83;;;1.10;;
8488;SDS011;4281;45.772;12.852;2022-09-02T13:54:23;5.60;;;2.23;;
8488;SDS011;4281;45.772;12.852;2022-09-02T13:56:58;4.50;;;1.80;;
8488;SDS011;4281;45.772;12.852;2022-09-02T13:59:30;1.63;;;1.30;;
8488;SDS011;4281;45.772;12.852;2022-09-02T14:02:14;2.73;;;1.20;;
8488;SDS011;4281;45.772;12.852;2022-09-02T14:04:44;1.70;;;1.10;;
8488;SDS011;4281;45.772;12.852;2022-09-02T14:07:24;2.03;;;1.30;;
8488;SDS011;4281;45.772;12.852;2022-09-02T14:09:57;2.47;;;1.17;;
8488;SDS011;4281;45.772;12.852;2022-09-02T14:12:30;4.63;;;1.27;;
8488;SDS011;4281;45.772;12.852;2022-09-02T14:15:01;1.63;;;1.33;;
8488;SDS011;4281;45.772;12.852;2022-09-02T14:17:32;3.33;;;1.30;;
8488;SDS011;4281;45.772;12.852;2022-09-02T14:20:08;1.10;;;1.00;;
8488;SDS011;4281;45.772;12.852;2022-09-02T14:22:42;3.43;;;1.37;;
8488;SDS011;4281;45.772;12.852;2022-09-02T14:25:19;2.07;;;1.20;;
8488;SDS011;4281;45.772;12.852;2022-09-02T14:27:54;1.37;;;1.10;;
8488;SDS011;4281;45.772;12.852;2022-09-02T14:30:25;2.60;;;1.40;;
8488;SDS011;4281;45.772;12.852;2022-09-02T14:36:05;1.10;;;1.10;;
8488;SDS011;4281;45.772;12.852;2022-09-02T14:38:36;1.43;;;1.30;;
8488;SDS011;4281;45.772;12.852;2022-09-02T14:41:18;1.20;;;1.07;;
8488;SDS011;4281;45.772;12.852;2022-09-02T14:43:51;1.83;;;1.30;;
8488;SDS011;4281;45.772;12.852;2022-09-02T14:46:24;1.20;;;1.10;;
8488;SDS011;4281;45.772;12.852;2022-09-02T14:48:56;1.57;;;1.40;;
8488;SDS011;4281;45.772;12.852;2022-09-02T14:51:33;1.53;;;1.20;;
8488;SDS011;4281;45.772;12.852;2022-09-02T14:54:04;2.80;;;1.40;;
8488;SDS011;4281;45.772;12.852;2022-09-02T14:56:47;2.57;;;1.37;;
8488;SDS011;4281;45.772;12.852;2022-09-02T14:59:18;1.30;;;1.20;;
8488;SDS011;4281;45.772;12.852;2022-09-02T15:01:48;3.17;;;1.40;;
8488;SDS011;4281;45.772;12.852;2022-09-02T15:04:18;1.73;;;1.27;;
8488;SDS011;4281;45.772;12.852;2022-09-02T15:06:46;1.30;;;1.20;;
8488;SDS011;4281;45.772;12.852;2022-09-02T15:09:15;1.20;;;1.10;;
8488;SDS011;4281;45.772;12.852;2022-09-02T15:11:44;3.23;;;1.20;;
8488;SDS011;4281;45.772;12.852;2022-09-02T15:14:16;2.10;;;1.27;;
8488;SDS011;4281;45.772;12.852;2022-09-02T15:16:46;2.50;;;1.17;;
8488;SDS011;4281;45.772;12.852;2022-09-02T15:19:14;2.70;;;1.60;;
8488;SDS011;4281;45.772;12.852;2022-09-02T15:21:43;1.37;;;1.20;;
8488;SDS011;4281;45.772;12.852;2022-09-02T15:24:11;2.03;;;1.30;;
8488;SDS011;4281;45.772;12.852;2022-09-02T15:26:39;1.53;;;1.30;;
8488;SDS011;4281;45.772;12.852;2022-09-02T15:29:08;1.87;;;1.10;;
8488;SDS011;4281;45.772;12.852;2022-09-02T15:31:36;1.40;;;1.30;;
8488;SDS011;4281;45.772;12.852;2022-09-02T15:34:06;1.00;;;1.00;;
8488;SDS011;4281;45.772;12.852;2022-09-02T15:36:35;1.60;;;1.40;;
8488;SDS011;4281;45.772;12.852;2022-09-02T15:39:03;2.80;;;2.60;;
8488;SDS011;4281;45.772;12.852;2022-09-02T15:41:31;2.40;;;1.57;;
8488;SDS011;4281;45.772;12.852;2022-09-02T15:44:00;1.50;;;1.40;;
8488;SDS011;4281;45.772;12.852;2022-09-02T15:46:34;2.60;;;1.60;;
8488;SDS011;4281;45.772;12.852;2022-09-02T15:49:04;2.53;;;1.70;;
8488;SDS011;4281;45.772;12.852;2022-09-02T15:51:35;1.70;;;1.20;;
8488;SDS011;4281;45.772;12.852;2022-09-02T15:54:05;3.57;;;1.40;;
8488;SDS011;4281;45.772;12.852;2022-09-02T15:56:35;2.77;;;1.77;;
8488;SDS011;4281;45.772;12.852;2022-09-02T15:59:06;3.17;;;2.20;;
8488;SDS011;4281;45.772;12.852;2022-09-02T16:01:36;3.07;;;1.70;;
8488;SDS011;4281;45.772;12.852;2022-09-02T16:04:07;3.67;;;1.60;;
8488;SDS011;4281;45.772;12.852;2022-09-02T16:06:36;1.27;;;1.13;;
8488;SDS011;4281;45.772;12.852;2022-09-02T16:09:06;2.77;;;2.57;;
8488;SDS011;4281;45.772;12.852;2022-09-02T16:11:36;3.80;;;3.20;;
8488;SDS011;4281;45.772;12.852;2022-09-02T16:14:05;2.10;;;1.60;;
8488;SDS011;4281;45.772;12.852;2022-09-02T16:16:34;8.40;;;4.77;;
8488;SDS011;4281;45.772;12.852;2022-09-02T16:19:03;1.83;;;1.53;;
8488;SDS011;4281;45.772;12.852;2022-09-02T16:21:34;5.40;;;3.83;;
8488;SDS011;4281;45.772;12.852;2022-09-02T16:24:04;7.33;;;5.60;;
8488;SDS011;4281;45.772;12.852;2022-09-02T16:26:34;1.77;;;1.50;;
8488;SDS011;4281;45.772;12.852;2022-09-02T16:29:04;3.63;;;3.30;;
8488;SDS011;4281;45.772;12.852;2022-09-02T16:31:35;1.90;;;1.60;;
8488;SDS011;4281;45.772;12.852;2022-09-02T16:34:05;2.27;;;1.50;;
8488;SDS011;4281;45.772;12.852;2022-09-02T16:36:36;3.97;;;1.50;;